sensor_id;sensor_type;location;lat;lon;timestamp;temperature;humidity
22212;DHT22;11275;52.488;13.462;2022-09-29T00:01:43;10.50;99.90
22212;DHT22;11275;52.488;13.462;2022-09-29T00:04:12;10.50;99.90
22212;DHT22;11275;52.488;13.462;2022-09-29T00:06:37;10.40;99.90
22212;DHT22;11275;52.488;13.462;2022-09-29T00:09:03;10.40;99.90
22212;DHT22;11275;52.488;13.462;2022-09-29T00:11:29;10.40;99.90
22212;DHT22;11275;52.488;13.462;2022-09-29T00:13:54;10.40;99.90
22212;DHT22;11275;52.488;13.462;2022-09-29T00:16:20;10.40;99.90
22212;DHT22;11275;52.488;13.462;2022-09-29T00:18:46;10.40;99.90
22212;DHT22;11275;52.488;13.462;2022-09-29T00:21:17;10.40;99.90
22212;DHT22;11275;52.488;13.462;2022-09-29T00:23:46;10.40;99.90
22212;DHT22;11275;52.488;13.462;2022-09-29T00:28:40;10.30;99.90
22212;DHT22;11275;52.488;13.462;2022-09-29T00:31:07;10.30;99.90
22212;DHT22;11275;52.488;13.462;2022-09-29T00:33:35;10.20;99.90
22212;DHT22;11275;52.488;13.462;2022-09-29T00:36:03;10.20;99.90
22212;DHT22;11275;52.488;13.462;2022-09-29T00:38:31;10.20;99.90
22212;DHT22;11275;52.488;13.462;2022-09-29T00:40:57;10.20;99.90
22212;DHT22;11275;52.488;13.462;2022-09-29T00:46:10;10.10;99.90
22212;DHT22;11275;52.488;13.462;2022-09-29T00:48:37;10.10;99.90
22212;DHT22;11275;52.488;13.462;2022-09-29T00:51:04;10.10;99.90
22212;DHT22;11275;52.488;13.462;2022-09-29T00:53:30;10.10;99.90
22212;DHT22;11275;52.488;13.462;2022-09-29T00:56:05;10.10;99.90
22212;DHT22;11275;52.488;13.462;2022-09-29T00:58:34;10.10;99.90
22212;DHT22;11275;52.488;13.462;2022-09-29T01:01:01;10.10;99.90
22212;DHT22;11275;52.488;13.462;2022-09-29T01:03:31;10.00;99.90
22212;DHT22;11275;52.488;13.462;2022-09-29T01:06:01;10.00;99.90
22212;DHT22;11275;52.488;13.462;2022-09-29T01:08:41;10.00;99.90
22212;DHT22;11275;52.488;13.462;2022-09-29T01:11:09;9.90;99.90
22212;DHT22;11275;52.488;13.462;2022-09-29T01:13:35;9.90;99.90
22212;DHT22;11275;52.488;13.462;2022-09-29T01:16:01;9.80;99.90
22212;DHT22;11275;52.488;13.462;2022-09-29T01:18:27;9.70;99.90
22212;DHT22;11275;52.488;13.462;2022-09-29T01:21:07;9.60;99.90
22212;DHT22;11275;52.488;13.462;2022-09-29T01:26:54;9.60;99.90
22212;DHT22;11275;52.488;13.462;2022-09-29T01:43:17;9.60;99.90
22212;DHT22;11275;52.488;13.462;2022-09-29T01:45:58;9.60;99.90
22212;DHT22;11275;52.488;13.462;2022-09-29T01:48:29;9.60;99.90
22212;DHT22;11275;52.488;13.462;2022-09-29T01:51:00;9.70;99.90
22212;DHT22;11275;52.488;13.462;2022-09-29T01:53:52;9.70;99.90
22212;DHT22;11275;52.488;13.462;2022-09-29T01:56:29;9.60;99.90
22212;DHT22;11275;52.488;13.462;2022-09-29T01:59:04;9.60;99.90
22212;DHT22;11275;52.488;13.462;2022-09-29T02:01:36;9.60;99.90
22212;DHT22;11275;52.488;13.462;2022-09-29T02:04:28;9.60;99.90
22212;DHT22;11275;52.488;13.462;2022-09-29T02:07:03;9.60;99.90
22212;DHT22;11275;52.488;13.462;2022-09-29T02:09:35;9.60;99.90
22212;DHT22;11275;52.488;13.462;2022-09-29T02:12:03;9.50;99.90
22212;DHT22;11275;52.488;13.462;2022-09-29T02:14:42;9.60;99.90
22212;DHT22;11275;52.488;13.462;2022-09-29T02:17:15;9.60;99.90
22212;DHT22;11275;52.488;13.462;2022-09-29T02:19:45;9.70;99.90
22212;DHT22;11275;52.488;13.462;2022-09-29T02:22:12;9.60;99.90
22212;DHT22;11275;52.488;13.462;2022-09-29T02:24:38;9.70;99.90
22212;DHT22;11275;52.488;13.462;2022-09-29T02:27:04;9.80;99.90
22212;DHT22;11275;52.488;13.462;2022-09-29T02:29:31;9.70;99.90
22212;DHT22;11275;52.488;13.462;2022-09-29T02:31:58;9.80;99.90
22212;DHT22;11275;52.488;13.462;2022-09-29T02:34:29;9.80;99.90
22212;DHT22;11275;52.488;13.462;2022-09-29T02:48:19;9.80;99.90
22212;DHT22;11275;52.488;13.462;2022-09-29T02:59:22;9.80;99.90
22212;DHT22;11275;52.488;13.462;2022-09-29T03:01:53;9.90;99.90
22212;DHT22;11275;52.488;13.462;2022-09-29T03:04:21;9.90;99.90
22212;DHT22;11275;52.488;13.462;2022-09-29T03:06:47;9.90;99.90
22212;DHT22;11275;52.488;13.462;2022-09-29T03:09:13;9.90;99.90
22212;DHT22;11275;52.488;13.462;2022-09-29T03:11:39;9.90;99.90
22212;DHT22;11275;52.488;13.462;2022-09-29T03:14:05;10.00;99.90
22212;DHT22;11275;52.488;13.462;2022-09-29T03:16:32;10.00;99.90
22212;DHT22;11275;52.488;13.462;2022-09-29T03:18:58;9.90;99.90
22212;DHT22;11275;52.488;13.462;2022-09-29T03:21:23;10.00;99.90
22212;DHT22;11275;52.488;13.462;2022-09-29T03:23:49;10.00;99.90
22212;DHT22;11275;52.488;13.462;2022-09-29T03:26:14;10.00;99.90
22212;DHT22;11275;52.488;13.462;2022-09-29T03:28:40;10.00;99.90
22212;DHT22;11275;52.488;13.462;2022-09-29T03:31:08;10.00;99.90
22212;DHT22;11275;52.488;13.462;2022-09-29T03:33:35;10.00;99.90
22212;DHT22;11275;52.488;13.462;2022-09-29T03:36:01;10.10;99.90
22212;DHT22;11275;52.488;13.462;2022-09-29T03:38:28;10.10;99.90
22212;DHT22;11275;52.488;13.462;2022-09-29T03:40:54;10.10;99.90
22212;DHT22;11275;52.488;13.462;2022-09-29T03:43:19;10.10;99.90
22212;DHT22;11275;52.488;13.462;2022-09-29T03:45:49;10.10;99.90
22212;DHT22;11275;52.488;13.462;2022-09-29T03:48:15;10.20;99.90
22212;DHT22;11275;52.488;13.462;2022-09-29T03:50:41;10.10;99.90
22212;DHT22;11275;52.488;13.462;2022-09-29T03:53:06;10.10;99.90
22212;DHT22;11275;52.488;13.462;2022-09-29T03:55:33;10.20;99.90
22212;DHT22;11275;52.488;13.462;2022-09-29T03:57:58;10.20;99.90
22212;DHT22;11275;52.488;13.462;2022-09-29T04:00:24;10.20;99.90
22212;DHT22;11275;52.488;13.462;2022-09-29T04:02:49;10.20;99.90
22212;DHT22;11275;52.488;13.462;2022-09-29T04:05:15;10.20;99.90
22212;DHT22;11275;52.488;13.462;2022-09-29T04:07:42;10.20;99.90
22212;DHT22;11275;52.488;13.462;2022-09-29T04:10:08;10.20;99.90
22212;DHT22;11275;52.488;13.462;2022-09-29T04:12:34;10.20;99.90
22212;DHT22;11275;52.488;13.462;2022-09-29T04:14:59;10.20;99.90
22212;DHT22;11275;52.488;13.462;2022-09-29T04:17:25;10.20;99.90
22212;DHT22;11275;52.488;13.462;2022-09-29T04:19:51;10.20;99.90
22212;DHT22;11275;52.488;13.462;2022-09-29T04:22:16;10.20;99.90
22212;DHT22;11275;52.488;13.462;2022-09-29T04:24:43;10.20;99.90
22212;DHT22;11275;52.488;13.462;2022-09-29T04:27:09;10.20;99.90
22212;DHT22;11275;52.488;13.462;2022-09-29T04:29:35;10.20;99.90
22212;DHT22;11275;52.488;13.462;2022-09-29T04:32:00;10.20;99.90
22212;DHT22;11275;52.488;13.462;2022-09-29T04:34:26;10.20;99.90
22212;DHT22;11275;52.488;13.462;2022-09-29T04:36:52;10.20;99.90
22212;DHT22;11275;52.488;13.462;2022-09-29T04:39:18;10.20;99.90
22212;DHT22;11275;52.488;13.462;2022-09-29T04:41:44;10.20;99.90
22212;DHT22;11275;52.488;13.462;2022-09-29T04:44:10;10.20;99.90
22212;DHT22;11275;52.488;13.462;2022-09-29T04:46:36;10.20;99.90
22212;DHT22;11275;52.488;13.462;2022-09-29T04:49:01;10.20;99.90
22212;DHT22;11275;52.488;13.462;2022-09-29T04:51:27;10.20;99.90
22212;DHT22;11275;52.488;13.462;2022-09-29T04:53:52;10.20;99.90
22212;DHT22;11275;52.488;13.462;2022-09-29T04:56:18;10.20;99.90
22212;DHT22;11275;52.488;13.462;2022-09-29T04:58:43;10.20;99.90
22212;DHT22;11275;52.488;13.462;2022-09-29T05:01:10;10.20;99.90
22212;DHT22;11275;52.488;13.462;2022-09-29T05:03:38;10.20;99.90
22212;DHT22;11275;52.488;13.462;2022-09-29T05:06:04;10.20;99.90
22212;DHT22;11275;52.488;13.462;2022-09-29T05:08:30;10.20;99.90
22212;DHT22;11275;52.488;13.462;2022-09-29T05:10:56;10.20;99.90
22212;DHT22;11275;52.488;13.462;2022-09-29T05:13:22;10.20;99.90
22212;DHT22;11275;52.488;13.462;2022-09-29T05:15:48;10.20;99.90
22212;DHT22;11275;52.488;13.462;2022-09-29T05:18:14;10.20;99.90
22212;DHT22;11275;52.488;13.462;2022-09-29T05:20:40;10.30;99.90
22212;DHT22;11275;52.488;13.462;2022-09-29T05:23:05;10.30;99.90
22212;DHT22;11275;52.488;13.462;2022-09-29T05:25:35;10.20;99.90
22212;DHT22;11275;52.488;13.462;2022-09-29T05:28:01;10.30;99.90
22212;DHT22;11275;52.488;13.462;2022-09-29T05:30:26;10.30;99.90
22212;DHT22;11275;52.488;13.462;2022-09-29T05:32:52;10.30;99.90
22212;DHT22;11275;52.488;13.462;2022-09-29T05:35:18;10.30;99.90
22212;DHT22;11275;52.488;13.462;2022-09-29T05:37:45;10.30;99.90
22212;DHT22;11275;52.488;13.462;2022-09-29T05:40:10;10.30;99.90
22212;DHT22;11275;52.488;13.462;2022-09-29T05:42:36;10.30;99.90
22212;DHT22;11275;52.488;13.462;2022-09-29T05:45:02;10.40;99.90
22212;DHT22;11275;52.488;13.462;2022-09-29T05:47:28;10.40;99.90
22212;DHT22;11275;52.488;13.462;2022-09-29T05:49:53;10.40;99.90
22212;DHT22;11275;52.488;13.462;2022-09-29T05:52:19;10.40;99.90
22212;DHT22;11275;52.488;13.462;2022-09-29T05:54:45;10.40;99.90
22212;DHT22;11275;52.488;13.462;2022-09-29T05:57:15;10.40;99.90
22212;DHT22;11275;52.488;13.462;2022-09-29T05:59:41;10.40;99.90
22212;DHT22;11275;52.488;13.462;2022-09-29T06:02:07;10.40;99.90
22212;DHT22;11275;52.488;13.462;2022-09-29T06:04:33;10.50;99.90
22212;DHT22;11275;52.488;13.462;2022-09-29T06:07:00;10.50;99.90
22212;DHT22;11275;52.488;13.462;2022-09-29T06:09:26;10.50;99.90
22212;DHT22;11275;52.488;13.462;2022-09-29T06:11:51;10.50;99.90
22212;DHT22;11275;52.488;13.462;2022-09-29T06:14:17;10.50;99.90
22212;DHT22;11275;52.488;13.462;2022-09-29T06:16:43;10.50;99.90
22212;DHT22;11275;52.488;13.462;2022-09-29T06:19:09;10.50;99.90
22212;DHT22;11275;52.488;13.462;2022-09-29T06:21:34;10.50;99.90
22212;DHT22;11275;52.488;13.462;2022-09-29T06:24:02;10.50;99.90
22212;DHT22;11275;52.488;13.462;2022-09-29T06:26:28;10.50;99.90
22212;DHT22;11275;52.488;13.462;2022-09-29T06:28:55;10.50;99.90
22212;DHT22;11275;52.488;13.462;2022-09-29T06:31:23;10.60;99.90
22212;DHT22;11275;52.488;13.462;2022-09-29T06:33:49;10.60;99.90
22212;DHT22;11275;52.488;13.462;2022-09-29T06:36:25;10.60;99.90
22212;DHT22;11275;52.488;13.462;2022-09-29T06:39:12;10.60;99.90
22212;DHT22;11275;52.488;13.462;2022-09-29T06:41:38;10.60;99.90
22212;DHT22;11275;52.488;13.462;2022-09-29T06:44:03;10.70;99.90
22212;DHT22;11275;52.488;13.462;2022-09-29T06:46:30;10.70;99.90
22212;DHT22;11275;52.488;13.462;2022-09-29T06:48:56;10.70;99.90
22212;DHT22;11275;52.488;13.462;2022-09-29T06:51:23;10.70;99.90
22212;DHT22;11275;52.488;13.462;2022-09-29T06:53:49;10.70;99.90
22212;DHT22;11275;52.488;13.462;2022-09-29T06:56:15;10.70;99.90
22212;DHT22;11275;52.488;13.462;2022-09-29T06:58:41;10.70;99.90
22212;DHT22;11275;52.488;13.462;2022-09-29T07:01:06;10.70;99.90
22212;DHT22;11275;52.488;13.462;2022-09-29T07:03:33;10.80;99.90
22212;DHT22;11275;52.488;13.462;2022-09-29T07:06:07;10.80;99.90
22212;DHT22;11275;52.488;13.462;2022-09-29T07:08:33;10.90;99.90
22212;DHT22;11275;52.488;13.462;2022-09-29T07:11:07;10.80;99.90
22212;DHT22;11275;52.488;13.462;2022-09-29T07:13:33;10.80;99.90
22212;DHT22;11275;52.488;13.462;2022-09-29T07:16:07;10.90;99.90
22212;DHT22;11275;52.488;13.462;2022-09-29T07:18:37;10.90;99.90
22212;DHT22;11275;52.488;13.462;2022-09-29T07:21:04;10.90;99.90
22212;DHT22;11275;52.488;13.462;2022-09-29T07:23:30;10.90;99.90
22212;DHT22;11275;52.488;13.462;2022-09-29T07:25:56;10.90;99.90
22212;DHT22;11275;52.488;13.462;2022-09-29T07:28:22;11.00;99.90
22212;DHT22;11275;52.488;13.462;2022-09-29T07:30:58;11.00;99.90
22212;DHT22;11275;52.488;13.462;2022-09-29T07:33:23;11.10;99.90
22212;DHT22;11275;52.488;13.462;2022-09-29T07:35:52;11.10;99.90
22212;DHT22;11275;52.488;13.462;2022-09-29T07:38:17;11.10;99.90
22212;DHT22;11275;52.488;13.462;2022-09-29T07:40:43;11.20;99.90
22212;DHT22;11275;52.488;13.462;2022-09-29T07:43:08;11.10;99.90
22212;DHT22;11275;52.488;13.462;2022-09-29T07:45:34;11.20;99.90
22212;DHT22;11275;52.488;13.462;2022-09-29T07:48:00;11.20;99.90
22212;DHT22;11275;52.488;13.462;2022-09-29T07:50:25;11.30;99.90
22212;DHT22;11275;52.488;13.462;2022-09-29T07:52:51;11.30;99.90
22212;DHT22;11275;52.488;13.462;2022-09-29T07:55:17;11.40;99.90
22212;DHT22;11275;52.488;13.462;2022-09-29T07:57:42;11.40;99.90
22212;DHT22;11275;52.488;13.462;2022-09-29T08:00:08;11.40;99.90
22212;DHT22;11275;52.488;13.462;2022-09-29T08:02:34;11.40;99.90
22212;DHT22;11275;52.488;13.462;2022-09-29T08:05:00;11.40;99.90
22212;DHT22;11275;52.488;13.462;2022-09-29T08:07:25;11.50;99.90
22212;DHT22;11275;52.488;13.462;2022-09-29T08:09:51;11.50;99.90
22212;DHT22;11275;52.488;13.462;2022-09-29T08:12:16;11.50;99.90
22212;DHT22;11275;52.488;13.462;2022-09-29T08:14:42;11.60;99.90
22212;DHT22;11275;52.488;13.462;2022-09-29T08:17:07;11.60;99.90
22212;DHT22;11275;52.488;13.462;2022-09-29T08:19:33;11.70;99.90
22212;DHT22;11275;52.488;13.462;2022-09-29T08:21:59;11.70;99.90
22212;DHT22;11275;52.488;13.462;2022-09-29T08:24:24;11.80;99.90
22212;DHT22;11275;52.488;13.462;2022-09-29T08:26:50;11.80;99.90
22212;DHT22;11275;52.488;13.462;2022-09-29T08:29:16;11.80;99.90
22212;DHT22;11275;52.488;13.462;2022-09-29T08:31:41;12.00;99.90
22212;DHT22;11275;52.488;13.462;2022-09-29T08:34:08;12.00;99.90
22212;DHT22;11275;52.488;13.462;2022-09-29T08:36:34;12.00;99.90
22212;DHT22;11275;52.488;13.462;2022-09-29T08:39:00;12.10;99.90
22212;DHT22;11275;52.488;13.462;2022-09-29T08:42:36;12.20;99.90
22212;DHT22;11275;52.488;13.462;2022-09-29T08:44:49;12.20;99.90
22212;DHT22;11275;52.488;13.462;2022-09-29T08:47:32;12.20;99.90
22212;DHT22;11275;52.488;13.462;2022-09-29T08:50:05;12.30;99.90
22212;DHT22;11275;52.488;13.462;2022-09-29T08:52:38;12.40;99.90
22212;DHT22;11275;52.488;13.462;2022-09-29T08:57:44;12.40;99.90
22212;DHT22;11275;52.488;13.462;2022-09-29T09:00:13;12.50;99.90
22212;DHT22;11275;52.488;13.462;2022-09-29T09:05:36;12.60;99.90
22212;DHT22;11275;52.488;13.462;2022-09-29T09:11:40;12.60;99.90
22212;DHT22;11275;52.488;13.462;2022-09-29T09:28:26;13.00;99.90
22212;DHT22;11275;52.488;13.462;2022-09-29T09:30:54;13.10;99.90
22212;DHT22;11275;52.488;13.462;2022-09-29T09:33:28;13.20;99.90
22212;DHT22;11275;52.488;13.462;2022-09-29T09:36:04;13.20;99.90
22212;DHT22;11275;52.488;13.462;2022-09-29T09:38:54;13.30;99.90
22212;DHT22;11275;52.488;13.462;2022-09-29T09:41:23;13.40;99.90
22212;DHT22;11275;52.488;13.462;2022-09-29T09:43:58;13.40;99.90
22212;DHT22;11275;52.488;13.462;2022-09-29T09:46:38;13.50;99.90
22212;DHT22;11275;52.488;13.462;2022-09-29T09:52:03;13.70;99.90
22212;DHT22;11275;52.488;13.462;2022-09-29T09:54:45;13.60;99.90
22212;DHT22;11275;52.488;13.462;2022-09-29T10:00:11;13.50;99.90
22212;DHT22;11275;52.488;13.462;2022-09-29T10:02:45;13.50;99.90
22212;DHT22;11275;52.488;13.462;2022-09-29T10:05:14;13.50;99.90
22212;DHT22;11275;52.488;13.462;2022-09-29T10:07:40;13.50;99.90
22212;DHT22;11275;52.488;13.462;2022-09-29T10:10:18;13.50;99.90
22212;DHT22;11275;52.488;13.462;2022-09-29T10:12:44;13.40;99.90
22212;DHT22;11275;52.488;13.462;2022-09-29T10:15:27;13.50;99.90
22212;DHT22;11275;52.488;13.462;2022-09-29T10:18:12;13.60;99.90
22212;DHT22;11275;52.488;13.462;2022-09-29T10:20:39;13.80;99.90
22212;DHT22;11275;52.488;13.462;2022-09-29T10:23:27;13.90;99.90
22212;DHT22;11275;52.488;13.462;2022-09-29T10:26:03;14.00;99.90
22212;DHT22;11275;52.488;13.462;2022-09-29T10:28:59;14.10;99.90
22212;DHT22;11275;52.488;13.462;2022-09-29T10:31:32;14.20;99.90
22212;DHT22;11275;52.488;13.462;2022-09-29T10:34:22;14.20;99.90
22212;DHT22;11275;52.488;13.462;2022-09-29T10:39:41;14.30;99.90
22212;DHT22;11275;52.488;13.462;2022-09-29T10:42:31;14.30;99.90
22212;DHT22;11275;52.488;13.462;2022-09-29T10:45:19;14.40;99.90
22212;DHT22;11275;52.488;13.462;2022-09-29T10:56:00;14.60;99.90
22212;DHT22;11275;52.488;13.462;2022-09-29T10:58:33;14.50;99.90
22212;DHT22;11275;52.488;13.462;2022-09-29T11:01:12;14.50;99.90
22212;DHT22;11275;52.488;13.462;2022-09-29T11:03:40;14.50;99.90
22212;DHT22;11275;52.488;13.462;2022-09-29T11:06:11;14.50;99.90
22212;DHT22;11275;52.488;13.462;2022-09-29T11:09:01;14.50;99.90
22212;DHT22;11275;52.488;13.462;2022-09-29T11:11:30;14.50;99.90
22212;DHT22;11275;52.488;13.462;2022-09-29T11:13:57;14.60;99.90
22212;DHT22;11275;52.488;13.462;2022-09-29T11:18:54;14.70;99.90
22212;DHT22;11275;52.488;13.462;2022-09-29T11:24:09;14.90;99.90
22212;DHT22;11275;52.488;13.462;2022-09-29T11:37:47;14.90;99.90
22212;DHT22;11275;52.488;13.462;2022-09-29T11:40:49;14.90;99.90
22212;DHT22;11275;52.488;13.462;2022-09-29T11:52:11;14.80;99.90
22212;DHT22;11275;52.488;13.462;2022-09-29T12:00:11;14.80;99.90
22212;DHT22;11275;52.488;13.462;2022-09-29T12:05:11;14.80;99.90
22212;DHT22;11275;52.488;13.462;2022-09-29T12:16:13;14.70;99.90
22212;DHT22;11275;52.488;13.462;2022-09-29T12:18:41;14.70;99.90
22212;DHT22;11275;52.488;13.462;2022-09-29T12:21:10;14.70;99.90
22212;DHT22;11275;52.488;13.462;2022-09-29T12:23:38;14.60;99.90
22212;DHT22;11275;52.488;13.462;2022-09-29T12:26:22;14.60;99.90
22212;DHT22;11275;52.488;13.462;2022-09-29T12:28:53;14.60;99.90
22212;DHT22;11275;52.488;13.462;2022-09-29T12:31:27;14.60;99.90
22212;DHT22;11275;52.488;13.462;2022-09-29T12:34:19;14.60;99.90
22212;DHT22;11275;52.488;13.462;2022-09-29T12:46:04;14.90;99.90
22212;DHT22;11275;52.488;13.462;2022-09-29T12:48:49;14.90;99.90
22212;DHT22;11275;52.488;13.462;2022-09-29T12:51:32;15.00;99.90
22212;DHT22;11275;52.488;13.462;2022-09-29T12:54:09;15.10;99.90
22212;DHT22;11275;52.488;13.462;2022-09-29T12:56:44;15.10;99.90
22212;DHT22;11275;52.488;13.462;2022-09-29T13:07:55;14.80;99.90
22212;DHT22;11275;52.488;13.462;2022-09-29T13:10:41;14.80;99.90
22212;DHT22;11275;52.488;13.462;2022-09-29T13:27:23;15.40;99.90
22212;DHT22;11275;52.488;13.462;2022-09-29T13:32:44;15.30;99.90
22212;DHT22;11275;52.488;13.462;2022-09-29T13:35:21;15.30;99.90
22212;DHT22;11275;52.488;13.462;2022-09-29T13:38:02;15.20;99.90
22212;DHT22;11275;52.488;13.462;2022-09-29T13:40:29;15.20;99.90
22212;DHT22;11275;52.488;13.462;2022-09-29T13:42:57;15.10;99.90
22212;DHT22;11275;52.488;13.462;2022-09-29T13:47:53;15.20;99.90
22212;DHT22;11275;52.488;13.462;2022-09-29T13:53:31;15.40;99.90
22212;DHT22;11275;52.488;13.462;2022-09-29T14:00:56;15.60;99.90
22212;DHT22;11275;52.488;13.462;2022-09-29T14:03:43;15.70;99.90
22212;DHT22;11275;52.488;13.462;2022-09-29T14:06:21;15.70;99.90
22212;DHT22;11275;52.488;13.462;2022-09-29T14:11:42;15.60;99.90
22212;DHT22;11275;52.488;13.462;2022-09-29T14:14:22;15.60;99.90
22212;DHT22;11275;52.488;13.462;2022-09-29T14:20:32;15.40;99.90
22212;DHT22;11275;52.488;13.462;2022-09-29T14:35:32;15.00;99.90
22212;DHT22;11275;52.488;13.462;2022-09-29T14:38:07;15.00;99.90
22212;DHT22;11275;52.488;13.462;2022-09-29T14:40:35;15.00;99.90
22212;DHT22;11275;52.488;13.462;2022-09-29T14:43:10;15.10;99.90
22212;DHT22;11275;52.488;13.462;2022-09-29T14:48:51;15.10;99.90
22212;DHT22;11275;52.488;13.462;2022-09-29T14:54:45;15.20;99.90
22212;DHT22;11275;52.488;13.462;2022-09-29T14:57:31;15.10;99.90
22212;DHT22;11275;52.488;13.462;2022-09-29T15:00:05;15.20;99.90
22212;DHT22;11275;52.488;13.462;2022-09-29T15:02:34;15.30;99.90
22212;DHT22;11275;52.488;13.462;2022-09-29T15:05:30;15.30;99.90
22212;DHT22;11275;52.488;13.462;2022-09-29T15:07:59;15.30;99.90
22212;DHT22;11275;52.488;13.462;2022-09-29T15:10:27;15.30;99.90
22212;DHT22;11275;52.488;13.462;2022-09-29T15:13:24;15.20;99.90
22212;DHT22;11275;52.488;13.462;2022-09-29T15:16:04;15.20;99.90
22212;DHT22;11275;52.488;13.462;2022-09-29T15:18:51;15.10;99.90
22212;DHT22;11275;52.488;13.462;2022-09-29T15:26:43;15.10;99.90
22212;DHT22;11275;52.488;13.462;2022-09-29T15:29:13;15.10;99.90
22212;DHT22;11275;52.488;13.462;2022-09-29T15:31:43;15.10;99.90
22212;DHT22;11275;52.488;13.462;2022-09-29T15:34:16;15.10;99.90
22212;DHT22;11275;52.488;13.462;2022-09-29T15:36:47;15.10;99.90
22212;DHT22;11275;52.488;13.462;2022-09-29T15:41:59;15.10;99.90
22212;DHT22;11275;52.488;13.462;2022-09-29T15:44:27;15.10;99.90
22212;DHT22;11275;52.488;13.462;2022-09-29T15:46:57;15.10;99.90
22212;DHT22;11275;52.488;13.462;2022-09-29T15:49:24;15.10;99.90
22212;DHT22;11275;52.488;13.462;2022-09-29T15:54:35;15.10;99.90
22212;DHT22;11275;52.488;13.462;2022-09-29T15:57:04;15.10;99.90
22212;DHT22;11275;52.488;13.462;2022-09-29T15:59:50;14.90;99.90
22212;DHT22;11275;52.488;13.462;2022-09-29T16:02:33;14.80;99.90
22212;DHT22;11275;52.488;13.462;2022-09-29T16:05:06;14.80;99.90
22212;DHT22;11275;52.488;13.462;2022-09-29T16:07:36;14.70;99.90
22212;DHT22;11275;52.488;13.462;2022-09-29T16:10:24;14.50;99.90
22212;DHT22;11275;52.488;13.462;2022-09-29T16:13:00;14.30;99.90
22212;DHT22;11275;52.488;13.462;2022-09-29T16:15:34;14.20;99.90
22212;DHT22;11275;52.488;13.462;2022-09-29T16:18:05;14.10;99.90
22212;DHT22;11275;52.488;13.462;2022-09-29T16:20:33;14.00;99.90
22212;DHT22;11275;52.488;13.462;2022-09-29T16:23:23;13.90;99.90
22212;DHT22;11275;52.488;13.462;2022-09-29T16:26:09;13.90;99.90
22212;DHT22;11275;52.488;13.462;2022-09-29T16:28:38;13.80;99.90
22212;DHT22;11275;52.488;13.462;2022-09-29T16:31:18;13.70;99.90
22212;DHT22;11275;52.488;13.462;2022-09-29T16:33:52;13.60;99.90
22212;DHT22;11275;52.488;13.462;2022-09-29T16:38:47;13.50;99.90
22212;DHT22;11275;52.488;13.462;2022-09-29T16:44:14;13.30;99.90
22212;DHT22;11275;52.488;13.462;2022-09-29T16:46:51;13.20;99.90
22212;DHT22;11275;52.488;13.462;2022-09-29T16:49:29;13.20;99.90
22212;DHT22;11275;52.488;13.462;2022-09-29T16:54:47;13.10;99.90
22212;DHT22;11275;52.488;13.462;2022-09-29T16:59:48;13.00;99.90
22212;DHT22;11275;52.488;13.462;2022-09-29T17:02:15;12.90;99.90
22212;DHT22;11275;52.488;13.462;2022-09-29T17:04:40;12.90;99.90
22212;DHT22;11275;52.488;13.462;2022-09-29T17:07:11;12.80;99.90
22212;DHT22;11275;52.488;13.462;2022-09-29T17:09:38;12.70;99.90
22212;DHT22;11275;52.488;13.462;2022-09-29T17:12:05;12.60;99.90
22212;DHT22;11275;52.488;13.462;2022-09-29T17:14:30;12.50;99.90
22212;DHT22;11275;52.488;13.462;2022-09-29T17:16:56;12.40;99.90
22212;DHT22;11275;52.488;13.462;2022-09-29T17:19:22;12.30;99.90
22212;DHT22;11275;52.488;13.462;2022-09-29T17:21:47;12.30;99.90
22212;DHT22;11275;52.488;13.462;2022-09-29T17:24:13;12.20;99.90
22212;DHT22;11275;52.488;13.462;2022-09-29T17:26:43;12.10;99.90
22212;DHT22;11275;52.488;13.462;2022-09-29T17:29:28;12.10;99.90
22212;DHT22;11275;52.488;13.462;2022-09-29T17:31:54;12.00;99.90
22212;DHT22;11275;52.488;13.462;2022-09-29T17:34:20;12.00;99.90
22212;DHT22;11275;52.488;13.462;2022-09-29T17:36:49;12.00;99.90
22212;DHT22;11275;52.488;13.462;2022-09-29T17:39:15;12.00;99.90
22212;DHT22;11275;52.488;13.462;2022-09-29T17:41:41;12.00;99.90
22212;DHT22;11275;52.488;13.462;2022-09-29T17:44:06;12.00;99.90
22212;DHT22;11275;52.488;13.462;2022-09-29T17:46:37;12.00;99.90
22212;DHT22;11275;52.488;13.462;2022-09-29T17:49:02;12.00;99.90
22212;DHT22;11275;52.488;13.462;2022-09-29T17:51:28;11.90;99.90
22212;DHT22;11275;52.488;13.462;2022-09-29T17:53:54;11.90;99.90
22212;DHT22;11275;52.488;13.462;2022-09-29T17:56:22;11.80;99.90
22212;DHT22;11275;52.488;13.462;2022-09-29T17:58:50;11.80;99.90
22212;DHT22;11275;52.488;13.462;2022-09-29T18:01:19;11.80;99.90
22212;DHT22;11275;52.488;13.462;2022-09-29T18:03:46;11.80;99.90
22212;DHT22;11275;52.488;13.462;2022-09-29T18:06:20;11.90;99.90
22212;DHT22;11275;52.488;13.462;2022-09-29T18:08:47;11.90;99.90
22212;DHT22;11275;52.488;13.462;2022-09-29T18:11:16;11.90;99.90
22212;DHT22;11275;52.488;13.462;2022-09-29T18:13:41;11.90;99.90
22212;DHT22;11275;52.488;13.462;2022-09-29T18:16:16;11.90;99.90
22212;DHT22;11275;52.488;13.462;2022-09-29T18:18:42;11.80;99.90
22212;DHT22;11275;52.488;13.462;2022-09-29T18:21:09;11.70;99.90
22212;DHT22;11275;52.488;13.462;2022-09-29T18:23:35;11.70;99.90
22212;DHT22;11275;52.488;13.462;2022-09-29T18:26:02;11.80;99.90
22212;DHT22;11275;52.488;13.462;2022-09-29T18:28:28;11.70;99.90
22212;DHT22;11275;52.488;13.462;2022-09-29T18:31:06;11.70;99.90
22212;DHT22;11275;52.488;13.462;2022-09-29T18:33:35;11.80;99.90
22212;DHT22;11275;52.488;13.462;2022-09-29T18:36:01;11.70;99.90
22212;DHT22;11275;52.488;13.462;2022-09-29T18:38:26;11.70;99.90
22212;DHT22;11275;52.488;13.462;2022-09-29T18:40:53;11.60;99.90
22212;DHT22;11275;52.488;13.462;2022-09-29T18:43:20;11.60;99.90
22212;DHT22;11275;52.488;13.462;2022-09-29T18:45:50;11.50;99.90
22212;DHT22;11275;52.488;13.462;2022-09-29T18:48:16;11.60;99.90
22212;DHT22;11275;52.488;13.462;2022-09-29T18:50:47;11.70;99.90
22212;DHT22;11275;52.488;13.462;2022-09-29T18:53:18;11.60;99.90
22212;DHT22;11275;52.488;13.462;2022-09-29T18:55:44;11.40;99.90
22212;DHT22;11275;52.488;13.462;2022-09-29T18:58:15;11.20;99.90
22212;DHT22;11275;52.488;13.462;2022-09-29T19:00:46;11.10;99.90
22212;DHT22;11275;52.488;13.462;2022-09-29T19:03:17;11.00;99.90
22212;DHT22;11275;52.488;13.462;2022-09-29T19:05:44;11.10;99.90
22212;DHT22;11275;52.488;13.462;2022-09-29T19:08:12;11.10;99.90
22212;DHT22;11275;52.488;13.462;2022-09-29T19:10:39;11.10;99.90
22212;DHT22;11275;52.488;13.462;2022-09-29T19:13:09;11.20;99.90